XNO56T EICK-EGKK
Flight info
| Callsign | XNO56T |
|---|---|
| Flight time | N/A |
| Altitude | 33000 |
| Route | ELTIG1S ELTIG DCT NORLA DCT FONZU DCT ELRIP DCT OTMET |
| Aircraft | A321/M-SDE3FGHIRWY/LB1 |
Departure
| Time | 2026-05-07 09:11 |
|---|---|
| Airport | Cork International Airport (EICK) |
Arrival
| Time | N/A |
|---|---|
| Airport | London Gatwick Airport (EGKK) |
| Time | Latitude | Longitude | Altitude | Speed | Heading |
|---|---|---|---|---|---|
| 2026-05-07 08:12 | 51.84752 | -8.49039 | 505 ft | 0 kts | 69° |
| 2026-05-07 09:02 | 51.84747 | -8.49058 | 504 ft | 4 kts | 68° |
| 2026-05-07 09:02 | 51.84736 | -8.49098 | 504 ft | 4 kts | 62° |
| 2026-05-07 09:03 | 51.84722 | -8.49135 | 504 ft | 4 kts | 49° |
| 2026-05-07 09:03 | 51.84703 | -8.49160 | 504 ft | 4 kts | 9° |
| 2026-05-07 09:03 | 51.84693 | -8.49161 | 504 ft | 0 kts | 340° |
| 2026-05-07 09:07 | 51.84694 | -8.49162 | 504 ft | 1 kts | 340° |
| 2026-05-07 09:07 | 51.84704 | -8.49168 | 504 ft | 2 kts | 340° |
| 2026-05-07 09:07 | 51.84725 | -8.49180 | 494 ft | 4 kts | 340° |
| 2026-05-07 09:07 | 51.84756 | -8.49197 | 504 ft | 6 kts | 343° |
| 2026-05-07 09:08 | 51.84799 | -8.49212 | 504 ft | 7 kts | 348° |
| 2026-05-07 09:08 | 51.84852 | -8.49231 | 504 ft | 9 kts | 348° |
| 2026-05-07 09:08 | 51.84916 | -8.49258 | 504 ft | 10 kts | 344° |
| 2026-05-07 09:08 | 51.84987 | -8.49296 | 504 ft | 12 kts | 340° |
| 2026-05-07 09:09 | 51.85067 | -8.49345 | 504 ft | 13 kts | 339° |
| 2026-05-07 09:09 | 51.85143 | -8.49412 | 504 ft | 12 kts | 293° |
| 2026-05-07 09:09 | 51.85098 | -8.49512 | 504 ft | 13 kts | 204° |
| 2026-05-07 09:09 | 51.85034 | -8.49578 | 504 ft | 9 kts | 235° |
| 2026-05-07 09:10 | 51.84985 | -8.49619 | 504 ft | 9 kts | 166° |
| 2026-05-07 09:10 | 51.84929 | -8.49586 | 504 ft | 10 kts | 159° |
| 2026-05-07 09:10 | 51.84812 | -8.49515 | 504 ft | 39 kts | 160° |
| 2026-05-07 09:10 | 51.84306 | -8.49217 | 505 ft | 113 kts | 160° |
| 2026-05-07 09:11 | 51.83373 | -8.48667 | 529 ft | 168 kts | 160° |
| 2026-05-07 09:11 | 51.82260 | -8.47975 | 1128 ft | 171 kts | 162° |
| 2026-05-07 09:11 | 51.81135 | -8.47400 | 1936 ft | 168 kts | 166° |
| 2026-05-07 09:11 | 51.80013 | -8.46867 | 2579 ft | 172 kts | 166° |
| 2026-05-07 09:12 | 51.78947 | -8.45790 | 2841 ft | 198 kts | 127° |
| 2026-05-07 09:12 | 51.78474 | -8.43570 | 2992 ft | 223 kts | 99° |
| 2026-05-07 09:12 | 51.78318 | -8.40970 | 3207 ft | 249 kts | 93° |
| 2026-05-07 09:12 | 51.78239 | -8.38014 | 3696 ft | 267 kts | 92° |
| 2026-05-07 09:13 | 51.78165 | -8.35032 | 4473 ft | 272 kts | 92° |
| 2026-05-07 09:13 | 51.78066 | -8.31966 | 5273 ft | 276 kts | 94° |
| 2026-05-07 09:13 | 51.77940 | -8.28857 | 6125 ft | 278 kts | 95° |
| 2026-05-07 09:13 | 51.77791 | -8.25737 | 6948 ft | 279 kts | 97° |
| 2026-05-07 09:14 | 51.77624 | -8.22615 | 7775 ft | 280 kts | 97° |
| 2026-05-07 09:14 | 51.77449 | -8.19458 | 8538 ft | 284 kts | 97° |
| 2026-05-07 09:14 | 51.77270 | -8.16252 | 9309 ft | 288 kts | 96° |
| 2026-05-07 09:14 | 51.77087 | -8.13004 | 10015 ft | 293 kts | 96° |
| 2026-05-07 09:15 | 51.76896 | -8.09634 | 10375 ft | 312 kts | 96° |
| 2026-05-07 09:15 | 51.76690 | -8.06017 | 10535 ft | 335 kts | 96° |
| 2026-05-07 09:15 | 51.76467 | -8.02152 | 10710 ft | 356 kts | 96° |
| 2026-05-07 09:15 | 51.76232 | -7.98129 | 11198 ft | 364 kts | 96° |
| 2026-05-07 09:16 | 51.75992 | -7.94025 | 11836 ft | 369 kts | 96° |
| 2026-05-07 09:16 | 51.75748 | -7.89881 | 12530 ft | 372 kts | 96° |
| 2026-05-07 09:16 | 51.75501 | -7.85699 | 13177 ft | 377 kts | 96° |
| 2026-05-07 09:16 | 51.75109 | -7.81502 | 13818 ft | 380 kts | 103° |
| 2026-05-07 09:17 | 51.74539 | -7.77316 | 14421 ft | 384 kts | 103° |
| 2026-05-07 09:17 | 51.73964 | -7.73099 | 15054 ft | 386 kts | 103° |
| 2026-05-07 09:17 | 51.73580 | -7.70290 | 15461 ft | 388 kts | 104° |
| 2026-05-07 09:17 | 51.72804 | -7.64632 | 16290 ft | 392 kts | 104° |
| 2026-05-07 09:18 | 51.72212 | -7.60317 | 16916 ft | 395 kts | 104° |
| 2026-05-07 09:18 | 51.71616 | -7.55969 | 17518 ft | 399 kts | 104° |
| 2026-05-07 09:18 | 51.71012 | -7.51585 | 18117 ft | 403 kts | 104° |
| 2026-05-07 09:18 | 51.70401 | -7.47157 | 18663 ft | 406 kts | 104° |
| 2026-05-07 09:19 | 51.69992 | -7.44206 | 19018 ft | 408 kts | 104° |
| 2026-05-07 09:19 | 51.69159 | -7.38208 | 19745 ft | 412 kts | 104° |
| 2026-05-07 09:19 | 51.68745 | -7.35222 | 20099 ft | 414 kts | 104° |
| 2026-05-07 09:19 | 51.68112 | -7.30689 | 20599 ft | 416 kts | 104° |
| 2026-05-07 09:20 | 51.67474 | -7.26118 | 21125 ft | 419 kts | 104° |
| 2026-05-07 09:20 | 51.66830 | -7.21524 | 21617 ft | 422 kts | 104° |
| 2026-05-07 09:20 | 51.66181 | -7.16903 | 22104 ft | 425 kts | 104° |
| 2026-05-07 09:20 | 51.65522 | -7.12249 | 22587 ft | 428 kts | 104° |
| 2026-05-07 09:21 | 51.64857 | -7.07566 | 23059 ft | 431 kts | 104° |
| 2026-05-07 09:21 | 51.64189 | -7.02853 | 23526 ft | 433 kts | 104° |
| 2026-05-07 09:21 | 51.63512 | -6.98108 | 23920 ft | 436 kts | 104° |
| 2026-05-07 09:21 | 51.62829 | -6.93350 | 24319 ft | 438 kts | 104° |
| 2026-05-07 09:22 | 51.62135 | -6.88572 | 24729 ft | 439 kts | 106° |
| 2026-05-07 09:22 | 51.61148 | -6.83931 | 25123 ft | 439 kts | 114° |
| 2026-05-07 09:22 | 51.59990 | -6.79366 | 25501 ft | 441 kts | 114° |
| 2026-05-07 09:22 | 51.58831 | -6.74783 | 25868 ft | 444 kts | 114° |
| 2026-05-07 09:23 | 51.57667 | -6.70172 | 26231 ft | 446 kts | 113° |
| 2026-05-07 09:23 | 51.56502 | -6.65545 | 26620 ft | 448 kts | 114° |
| 2026-05-07 09:23 | 51.55328 | -6.60898 | 26991 ft | 450 kts | 114° |
| 2026-05-07 09:23 | 51.54146 | -6.56232 | 27355 ft | 452 kts | 114° |
| 2026-05-07 09:24 | 51.52956 | -6.51557 | 27729 ft | 453 kts | 114° |
| 2026-05-07 09:24 | 51.51760 | -6.46867 | 28107 ft | 455 kts | 114° |
| 2026-05-07 09:24 | 51.50555 | -6.42151 | 28469 ft | 457 kts | 114° |
| 2026-05-07 09:24 | 51.49345 | -6.37423 | 28846 ft | 459 kts | 114° |
| 2026-05-07 09:25 | 51.48130 | -6.32700 | 29298 ft | 458 kts | 114° |
| 2026-05-07 09:25 | 51.46931 | -6.28049 | 29802 ft | 456 kts | 114° |
| 2026-05-07 09:25 | 51.45719 | -6.23357 | 30284 ft | 454 kts | 114° |
| 2026-05-07 09:25 | 51.44512 | -6.18700 | 30756 ft | 451 kts | 114° |
| 2026-05-07 09:26 | 51.43312 | -6.14079 | 31214 ft | 448 kts | 114° |
| 2026-05-07 09:26 | 51.42117 | -6.09473 | 31624 ft | 447 kts | 113° |
| 2026-05-07 09:26 | 51.40925 | -6.04882 | 32031 ft | 446 kts | 114° |
| 2026-05-07 09:26 | 51.39727 | -6.00286 | 32344 ft | 447 kts | 114° |
| 2026-05-07 09:27 | 51.38526 | -5.95699 | 32716 ft | 446 kts | 114° |
| 2026-05-07 09:27 | 51.37322 | -5.91103 | 32979 ft | 447 kts | 114° |
| 2026-05-07 09:28 | 51.33960 | -5.78305 | 33017 ft | 438 kts | 114° |